Time;durP1;ratioP1;P1;durP2;ratioP2;P2;SDS_P1;SDS_P2;PMS_P1;PMS_P2;Temp;Humidity;BMP_temperature;BMP_pressure;BME280_temperature;BME280_humidity;BME280_pressure;Samples;Min_cycle;Max_cycle;Signal;HPM_P1;HPM_P2
2021/06/17 00:01:42;;;;;;;;;;;;;;;;;;4929818;29;19929;-92
2021/06/17 00:04:10;;;;;;;;;;;;;;;;;;4926887;29;19985;-91
2021/06/17 00:06:39;;;;;;;;;;;;;;;;;;4927400;29;20413;-92
2021/06/17 00:09:09;;;;;;;;;;;;;;;;;;4943535;29;19938;-94
2021/06/17 00:11:37;;;;;;;;;;;;;;;;;;4942815;29;20298;-92
2021/06/17 00:14:05;;;;;;;;;;;;;;;;;;4926666;29;19922;-91
2021/06/17 00:16:34;;;;;;;;;;;;;;;;;;4926172;29;19922;-92
2021/06/17 00:19:02;;;;;;;;;;;;;;;;;;4941102;29;20302;-92
2021/06/17 00:21:31;;;;;;;;;;;;;;;;;;4926345;29;19922;-92
2021/06/17 00:23:59;;;;;;;;;;;;;;;;;;4927040;29;19934;-92
2021/06/17 00:26:29;;;;;;;;;;;;;;;;;;4952592;28;19929;-91
2021/06/17 00:28:57;;;;;;;;;;;;;;;;;;4937716;29;20391;-91
2021/06/17 00:31:26;;;;;;;;;;;;;;;;;;4947028;29;19929;-91
2021/06/17 00:33:54;;;;;;;;;;;;;;;;;;4921435;29;19923;-91
2021/06/17 00:36:22;;;;;;;;;;;;;;;;;;4922797;29;19922;-91
2021/06/17 00:38:50;;;;;;;;;;;;;;;;;;4925089;29;20310;-91
2021/06/17 00:41:19;;;;;;;;;;;;;;;;;;4925581;29;19922;-92
2021/06/17 00:43:49;;;;;;;;;;;;;;;;;;4942275;29;19922;-91
2021/06/17 00:46:18;;;;;;;;;;;;;;;;;;4922079;29;19930;-91
2021/06/17 00:48:46;;;;;;;;;;;;;;;;;;4920965;29;20314;-91
2021/06/17 00:51:14;;;;;;;;;;;;;;;;;;4943611;29;19929;-93
2021/06/17 00:53:45;;;;;;;;;;;;;;;;;;4954023;29;19942;-91
2021/06/17 00:56:13;;;;;;;;;;;;;;;;;;4963718;28;19929;-92
2021/06/17 00:58:41;;;;;;;;;;;;;;;;;;4929805;29;19929;-89
2021/06/17 01:01:11;;;;;;;;;;;;;;;;;;4959157;29;19926;-91
2021/06/17 01:03:40;;;;;;;;;;;;;;;;;;4930779;29;19926;-92
2021/06/17 01:06:08;;;;;;;;;;;;;;;;;;4939806;29;19929;-91
2021/06/17 01:08:40;;;;;;;;;;;;;;;;;;4964297;28;19945;-92
2021/06/17 01:11:10;;;;;;;;;;;;;;;;;;4955279;29;19922;-92
2021/06/17 01:13:41;;;;;;;;;;;;;;;;;;4944934;29;19923;-91
2021/06/17 01:16:16;;;;;;;;;;;;;;;;;;4916874;29;19929;-92
2021/06/17 01:18:47;;;;;;;;;;;;;;;;;;4930626;29;19929;-91
2021/06/17 01:21:20;;;;;;;;;;;;;;;;;;4929772;29;19922;-92
2021/06/17 01:23:57;;;;;;;;;;;;;;;;;;4929423;29;19923;-91
2021/06/17 01:26:26;;;;;;;;;;;;;;;;;;4959220;28;19931;-93
2021/06/17 01:28:56;;;;;;;;;;;;;;;;;;4926542;29;19929;-91
2021/06/17 01:31:25;;;;;;;;;;;;;;;;;;4936935;29;19922;-91
2021/06/17 01:33:54;;;;;;;;;;;;;;;;;;4945320;29;20003;-91
2021/06/17 01:36:23;;;;;;;;;;;;;;;;;;4955628;29;19923;-91
2021/06/17 01:38:52;;;;;;;;;;;;;;;;;;4946381;29;19927;-91
2021/06/17 01:41:26;;;;;;;;;;;;;;;;;;4941509;28;19912;-93
2021/06/17 01:43:56;;;;;;;;;;;;;;;;;;4948167;29;19922;-93
2021/06/17 01:46:26;;;;;;;;;;;;;;;;;;4964471;29;19932;-92
2021/06/17 01:48:55;;;;;;;;;;;;;;;;;;4943296;29;19922;-94
2021/06/17 01:51:24;;;;;;;;;;;;;;;;;;4942498;29;19929;-91
2021/06/17 01:53:52;;;;;;;;;;;;;;;;;;4944112;29;19929;-92
2021/06/17 01:56:22;;;;;;;;;;;;;;;;;;4926568;29;19927;-90
2021/06/17 01:58:51;;;;;;;;;;;;;;;;;;4944295;29;20144;-91
2021/06/17 02:01:21;;;;;;;;;;;;;;;;;;4922418;29;19922;-91
2021/06/17 02:03:49;;;;;;;;;;;;;;;;;;4939449;29;19945;-92
2021/06/17 02:06:18;;;;;;;;;;;;;;;;;;4928818;29;19937;-90
2021/06/17 02:08:47;;;;;;;;;;;;;;;;;;4958240;29;20602;-92
2021/06/17 02:11:15;;;;;;;;;;;;;;;;;;4943643;29;19930;-92
2021/06/17 02:13:43;;;;;;;;;;;;;;;;;;4921679;29;20383;-91
2021/06/17 02:16:12;;;;;;;;;;;;;;;;;;4949629;29;19923;-91
2021/06/17 02:18:42;;;;;;;;;;;;;;;;;;4943000;29;20147;-91
2021/06/17 02:21:10;;;;;;;;;;;;;;;;;;4925681;29;19922;-92
2021/06/17 02:23:38;;;;;;;;;;;;;;;;;;4942106;29;20403;-93
2021/06/17 02:26:07;;;;;;;;;;;;;;;;;;4937670;29;20391;-92
2021/06/17 02:28:38;;;;;;;;;;;;;;;;;;4936554;28;20263;-90
2021/06/17 02:31:07;;;;;;;;;;;;;;;;;;4962785;28;19922;-92
2021/06/17 02:33:35;;;;;;;;;;;;;;;;;;4941291;29;19930;-92
2021/06/17 02:36:05;;;;;;;;;;;;;;;;;;4925855;29;19923;-91
2021/06/17 02:38:34;;;;;;;;;;;;;;;;;;4925634;29;20398;-91
2021/06/17 02:41:04;;;;;;;;;;;;;;;;;;4927614;29;19923;-92
2021/06/17 02:43:34;;;;;;;;;;;;;;;;;;4926224;29;19922;-91
2021/06/17 02:46:03;;;;;;;;;;;;;;;;;;4926825;28;19922;-92
2021/06/17 02:48:31;;;;;;;;;;;;;;;;;;4948726;29;20452;-91
2021/06/17 02:51:01;;;;;;;;;;;;;;;;;;4926280;29;19934;-92
2021/06/17 02:53:31;;;;;;;;;;;;;;;;;;4960102;29;19922;-92
2021/06/17 02:55:59;;;;;;;;;;;;;;;;;;4943609;29;19930;-91
2021/06/17 02:58:36;;;;;;;;;;;;;;;;;;4942532;29;19929;-92
2021/06/17 03:01:13;;;;;;;;;;;;;;;;;;4925721;29;19923;-92
2021/06/17 03:03:42;;;;;;;;;;;;;;;;;;4929687;29;19933;-92
2021/06/17 03:06:13;;;;;;;;;;;;;;;;;;4922429;29;19926;-91
2021/06/17 03:08:45;;;;;;;;;;;;;;;;;;4939683;29;19926;-91
2021/06/17 03:11:14;;;;;;;;;;;;;;;;;;4925703;29;19929;-93
2021/06/17 03:13:43;;;;;;;;;;;;;;;;;;4915739;29;19923;-92
2021/06/17 03:16:13;;;;;;;;;;;;;;;;;;4942689;29;20474;-91
2021/06/17 03:18:41;;;;;;;;;;;;;;;;;;4938374;28;19933;-92
2021/06/17 03:21:10;;;;;;;;;;;;;;;;;;4930205;29;19923;-91
2021/06/17 03:23:39;;;;;;;;;;;;;;;;;;4932111;29;19922;-92
2021/06/17 03:26:10;;;;;;;;;;;;;;;;;;4942228;29;19922;-92
2021/06/17 03:28:39;;;;;;;;;;;;;;;;;;4928431;29;19923;-91
2021/06/17 03:31:07;;;;;;;;;;;;;;;;;;4942614;29;19922;-93
2021/06/17 03:33:37;;;;;;;;;;;;;;;;;;4924974;29;20398;-91
2021/06/17 03:36:06;;;;;;;;;;;;;;;;;;4927027;29;19922;-91
2021/06/17 03:38:34;;;;;;;;;;;;;;;;;;4943481;29;19922;-91
2021/06/17 03:41:03;;;;;;;;;;;;;;;;;;4930260;29;19946;-92
2021/06/17 03:43:34;;;;;;;;;;;;;;;;;;4926589;29;19922;-91
2021/06/17 03:46:02;;;;;;;;;;;;;;;;;;4941930;29;19929;-92
2021/06/17 03:48:30;;;;;;;;;;;;;;;;;;4925669;29;19933;-91
2021/06/17 03:50:59;;;;;;;;;;;;;;;;;;4941589;29;19922;-92
2021/06/17 03:53:27;;;;;;;;;;;;;;;;;;4939491;29;20306;-92
2021/06/17 03:55:56;;;;;;;;;;;;;;;;;;4945380;29;19930;-94
2021/06/17 03:58:25;;;;;;;;;;;;;;;;;;4926783;29;19929;-91
2021/06/17 04:00:56;;;;;;;;;;;;;;;;;;4942146;29;20575;-90
2021/06/17 04:03:24;;;;;;;;;;;;;;;;;;4941040;29;19923;-91
2021/06/17 04:05:52;;;;;;;;;;;;;;;;;;4927623;29;19922;-92
2021/06/17 04:08:27;;;;;;;;;;;;;;;;;;4940757;29;19930;-93
2021/06/17 04:10:55;;;;;;;;;;;;;;;;;;4949762;29;19930;-92
2021/06/17 04:13:24;;;;;;;;;;;;;;;;;;4963828;28;20334;-93
2021/06/17 04:15:52;;;;;;;;;;;;;;;;;;4926458;29;19929;-92
2021/06/17 04:18:22;;;;;;;;;;;;;;;;;;4926909;29;19923;-92
2021/06/17 04:20:50;;;;;;;;;;;;;;;;;;4934304;29;19930;-92
2021/06/17 04:23:20;;;;;;;;;;;;;;;;;;4928773;29;19934;-92
2021/06/17 04:25:49;;;;;;;;;;;;;;;;;;4928306;29;19945;-91
2021/06/17 04:28:18;;;;;;;;;;;;;;;;;;4941602;29;19926;-92
2021/06/17 04:30:46;;;;;;;;;;;;;;;;;;4934008;29;19922;-92
2021/06/17 04:33:17;;;;;;;;;;;;;;;;;;4948938;29;19926;-90
2021/06/17 04:35:47;;;;;;;;;;;;;;;;;;4946268;29;20298;-91
2021/06/17 04:38:17;;;;;;;;;;;;;;;;;;4947692;29;20306;-93
2021/06/17 04:40:46;;;;;;;;;;;;;;;;;;4919232;29;19923;-92
2021/06/17 04:43:17;;;;;;;;;;;;;;;;;;4941464;29;19922;-92
2021/06/17 04:45:45;;;;;;;;;;;;;;;;;;4927821;29;19922;-90
2021/06/17 04:48:14;;;;;;;;;;;;;;;;;;4940045;29;19926;-93
2021/06/17 04:50:42;;;;;;;;;;;;;;;;;;4947652;29;19922;-92
2021/06/17 04:53:13;;;;;;;;;;;;;;;;;;4947618;29;19923;-88
2021/06/17 04:55:43;;;;;;;;;;;;;;;;;;4931597;29;19922;-89
2021/06/17 04:58:12;;;;;;;;;;;;;;;;;;4928815;29;19930;-89
2021/06/17 05:00:40;;;;;;;;;;;;;;;;;;4942513;29;19926;-87
2021/06/17 05:03:10;;;;;;;;;;;;;;;;;;4926300;29;19923;-90
2021/06/17 05:05:38;;;;;;;;;;;;;;;;;;4939531;29;19985;-90
2021/06/17 05:10:56;;;;;;;;;;;;;;;;;;4946042;28;19929;-88
2021/06/17 05:13:25;;;;;;;;;;;;;;;;;;4926801;29;19926;-88
2021/06/17 05:15:53;;;;;;;;;;;;;;;;;;4926147;29;19933;-89
2021/06/17 05:18:22;;;;;;;;;;;;;;;;;;4924784;29;19922;-88
2021/06/17 05:20:51;;;;;;;;;;;;;;;;;;4926173;29;20338;-90
2021/06/17 05:23:21;;;;;;;;;;;;;;;;;;4942467;28;19930;-88
2021/06/17 05:25:49;;;;;;;;;;;;;;;;;;4944165;29;19930;-89
2021/06/17 05:28:21;;;;;;;;;;;;;;;;;;4924595;29;19930;-90
2021/06/17 05:30:49;;;;;;;;;;;;;;;;;;4940330;29;19922;-89
2021/06/17 05:33:17;;;;;;;;;;;;;;;;;;4937121;29;19923;-89
2021/06/17 05:35:47;;;;;;;;;;;;;;;;;;4933014;29;20393;-92
2021/06/17 05:38:16;;;;;;;;;;;;;;;;;;4924475;29;19933;-93
2021/06/17 05:40:44;;;;;;;;;;;;;;;;;;4940212;29;19922;-93
2021/06/17 05:43:13;;;;;;;;;;;;;;;;;;4926048;28;19933;-91
2021/06/17 05:45:42;;;;;;;;;;;;;;;;;;4927247;29;19922;-89
2021/06/17 05:48:11;;;;;;;;;;;;;;;;;;4924702;29;19929;-88
2021/06/17 05:50:40;;;;;;;;;;;;;;;;;;4929308;29;19929;-84
2021/06/17 05:53:08;;;;;;;;;;;;;;;;;;4929561;28;19923;-84
2021/06/17 05:55:36;;;;;;;;;;;;;;;;;;4943047;29;19929;-84
2021/06/17 05:58:05;;;;;;;;;;;;;;;;;;4944819;28;20084;-86
2021/06/17 06:00:33;;;;;;;;;;;;;;;;;;4927833;29;20315;-85
2021/06/17 06:03:03;;;;;;;;;;;;;;;;;;4953269;28;20417;-85
2021/06/17 06:05:31;;;;;;;;;;;;;;;;;;4945560;29;19922;-82
2021/06/17 06:08:00;;;;;;;;;;;;;;;;;;4935738;28;19929;-84
2021/06/17 06:10:28;;;;;;;;;;;;;;;;;;4932841;28;19922;-84
2021/06/17 06:12:56;;;;;;;;;;;;;;;;;;4964905;28;20314;-87
2021/06/17 06:15:27;;;;;;;;;;;;;;;;;;4923841;29;19930;-87
2021/06/17 06:17:55;;;;;;;;;;;;;;;;;;4919281;28;19929;-87
2021/06/17 06:20:25;;;;;;;;;;;;;;;;;;4979100;28;19919;-89
2021/06/17 06:22:53;;;;;;;;;;;;;;;;;;4977705;28;19913;-89
2021/06/17 06:25:21;;;;;;;;;;;;;;;;;;4926834;28;19922;-88
2021/06/17 06:27:49;;;;;;;;;;;;;;;;;;4921595;28;19930;-88
2021/06/17 06:30:18;;;;;;;;;;;;;;;;;;4926375;28;19922;-88
2021/06/17 06:32:46;;;;;;;;;;;;;;;;;;4954583;28;19930;-88
2021/06/17 06:35:15;;;;;;;;;;;;;;;;;;4938523;28;19926;-88
2021/06/17 06:37:48;;;;;;;;;;;;;;;;;;4936730;29;19922;-87
2021/06/17 06:40:17;;;;;;;;;;;;;;;;;;4929048;29;19931;-89
2021/06/17 06:42:45;;;;;;;;;;;;;;;;;;4938726;28;19934;-88
2021/06/17 06:45:14;;;;;;;;;;;;;;;;;;4935692;28;19949;-88
2021/06/17 06:47:43;;;;;;;;;;;;;;;;;;4919929;28;19926;-87
2021/06/17 06:50:12;;;;;;;;;;;;;;;;;;4918543;28;20391;-87
2021/06/17 06:52:41;;;;;;;;;;;;;;;;;;4945683;28;19926;-87
2021/06/17 06:55:11;;;;;;;;;;;;;;;;;;4938784;28;19929;-90
2021/06/17 06:57:39;;;;;;;;;;;;;;;;;;4940346;28;20298;-90
2021/06/17 07:00:09;;;;;;;;;;;;;;;;;;4943399;28;19937;-89
2021/06/17 07:02:40;;;;;;;;;;;;;;;;;;4931029;28;20389;-91
2021/06/17 07:05:09;;;;;;;;;;;;;;;;;;4924222;28;20415;-89
2021/06/17 07:07:39;;;;;;;;;;;;;;;;;;4936161;29;19922;-91
2021/06/17 07:10:08;;;;;;;;;;;;;;;;;;4919704;29;19926;-90
2021/06/17 07:12:38;;;;;;;;;;;;;;;;;;4937810;29;19933;-90
2021/06/17 07:15:07;;;;;;;;;;;;;;;;;;4928343;28;20373;-90
2021/06/17 07:17:35;;;;;;;;;;;;;;;;;;4936522;28;20239;-91
2021/06/17 07:20:05;;;;;;;;;;;;;;;;;;4917238;28;19937;-89
2021/06/17 07:22:33;;;;;;;;;;;;;;;;;;4929385;29;19922;-89
2021/06/17 07:25:01;;;;;;;;;;;;;;;;;;4934161;28;19929;-89
2021/06/17 07:27:31;;;;;;;;;;;;;;;;;;4935258;28;19922;-89
2021/06/17 07:30:01;;;;;;;;;;;;;;;;;;4918215;29;19922;-88
2021/06/17 07:32:29;;;;;;;;;;;;;;;;;;4927448;28;20293;-88
2021/06/17 07:34:58;;;;;;;;;;;;;;;;;;4939862;29;19930;-89
2021/06/17 07:37:26;;;;;;;;;;;;;;;;;;4928306;28;19927;-90
2021/06/17 07:39:54;;;;;;;;;;;;;;;;;;4923771;29;20326;-88
2021/06/17 07:42:23;;;;;;;;;;;;;;;;;;4939555;29;19922;-87
2021/06/17 07:44:51;;;;;;;;;;;;;;;;;;4940747;28;19938;-87
2021/06/17 07:47:21;;;;;;;;;;;;;;;;;;4919714;28;19937;-88
2021/06/17 07:49:49;;;;;;;;;;;;;;;;;;4944548;28;19933;-86
2021/06/17 07:52:18;;;;;;;;;;;;;;;;;;4918329;28;20388;-88
2021/06/17 07:54:49;;;;;;;;;;;;;;;;;;4959242;28;19950;-87
2021/06/17 07:57:17;;;;;;;;;;;;;;;;;;4938018;28;19922;-90
2021/06/17 07:59:45;;;;;;;;;;;;;;;;;;4932973;29;19922;-88
2021/06/17 08:02:14;;;;;;;;;;;;;;;;;;4937619;29;19929;-89
2021/06/17 08:04:43;;;;;;;;;;;;;;;;;;4935815;28;19926;-89
2021/06/17 08:07:12;;;;;;;;;;;;;;;;;;4933133;28;19922;-87
2021/06/17 08:09:40;;;;;;;;;;;;;;;;;;4930593;28;20616;-87
2021/06/17 08:12:09;;;;;;;;;;;;;;;;;;4920089;29;19927;-87
2021/06/17 08:14:37;;;;;;;;;;;;;;;;;;4953388;28;19922;-87
2021/06/17 08:17:05;;;;;;;;;;;;;;;;;;4936936;28;20415;-86
2021/06/17 08:19:34;;;;;;;;;;;;;;;;;;4936489;28;19994;-87
2021/06/17 08:22:05;;;;;;;;;;;;;;;;;;4939787;28;20279;-86
2021/06/17 08:24:33;;;;;;;;;;;;;;;;;;4936420;28;19934;-88
2021/06/17 08:27:01;;;;;;;;;;;;;;;;;;4926311;28;19929;-86
2021/06/17 08:29:30;;;;;;;;;;;;;;;;;;4927498;28;19930;-87
2021/06/17 08:31:58;;;;;;;;;;;;;;;;;;4942859;28;19923;-88
2021/06/17 08:34:29;;;;;;;;;;;;;;;;;;4957205;28;19930;-87
2021/06/17 08:36:58;;;;;;;;;;;;;;;;;;4937014;28;19922;-86
2021/06/17 08:39:29;;;;;;;;;;;;;;;;;;4938592;28;19923;-87
2021/06/17 08:42:01;;;;;;;;;;;;;;;;;;4911633;29;19930;-89
2021/06/17 08:44:30;;;;;;;;;;;;;;;;;;4933309;28;19931;-88
2021/06/17 08:46:58;;;;;;;;;;;;;;;;;;4918894;28;20391;-86
2021/06/17 08:49:27;;;;;;;;;;;;;;;;;;4938764;28;19926;-87
2021/06/17 08:51:58;;;;;;;;;;;;;;;;;;4941235;28;20004;-88
2021/06/17 08:54:29;;;;;;;;;;;;;;;;;;4930860;28;19922;-87
2021/06/17 08:56:59;;;;;;;;;;;;;;;;;;4921446;28;19927;-88
2021/06/17 08:59:30;;;;;;;;;;;;;;;;;;4931704;28;19922;-88
2021/06/17 09:02:00;;;;;;;;;;;;;;;;;;4954486;28;19929;-88
2021/06/17 09:04:30;;;;;;;;;;;;;;;;;;4953645;28;19929;-90
2021/06/17 09:06:59;;;;;;;;;;;;;;;;;;4941426;28;19922;-88
2021/06/17 09:09:32;;;;;;;;;;;;;;;;;;4952682;28;19923;-88
2021/06/17 09:12:00;;;;;;;;;;;;;;;;;;4954469;28;19933;-87
2021/06/17 09:14:29;;;;;;;;;;;;;;;;;;4944625;28;19922;-87
2021/06/17 09:16:58;;;;;;;;;;;;;;;;;;4943465;28;20405;-90
2021/06/17 09:19:36;;;;;;;;;;;;;;;;;;4964839;28;19922;-88
2021/06/17 09:22:05;;;;;;;;;;;;;;;;;;4945798;28;19930;-86
2021/06/17 09:24:35;;;;;;;;;;;;;;;;;;4954279;28;19926;-87
2021/06/17 09:27:20;;;;;;;;;;;;;;;;;;4944522;28;19931;-87
2021/06/17 09:29:48;;;;;;;;;;;;;;;;;;4933903;28;19910;-86
2021/06/17 09:32:17;;;;;;;;;;;;;;;;;;4945821;28;19929;-88
2021/06/17 09:34:45;;;;;;;;;;;;;;;;;;4946479;28;19922;-87
2021/06/17 09:37:34;;;;;;;;;;;;;;;;;;4939041;28;19926;-88
2021/06/17 09:40:17;;;;;;;;;;;;;;;;;;4953650;28;19929;-87
2021/06/17 09:42:46;;;;;;;;;;;;;;;;;;4949885;28;20951;-87
2021/06/17 09:45:16;;;;;;;;;;;;;;;;;;4951483;28;20117;-87
2021/06/17 09:47:46;;;;;;;;;;;;;;;;;;4951034;28;19933;-89
2021/06/17 09:50:22;;;;;;;;;;;;;;;;;;4952013;28;19926;-89
2021/06/17 09:52:50;;;;;;;;;;;;;;;;;;4935659;29;20375;-89
2021/06/17 09:55:34;;;;;;;;;;;;;;;;;;4933516;28;19930;-90
2021/06/17 09:58:06;;;;;;;;;;;;;;;;;;4935217;28;19922;-88
2021/06/17 10:00:34;;;;;;;;;;;;;;;;;;4965268;28;20311;-89
2021/06/17 10:03:13;;;;;;;;;;;;;;;;;;4933961;28;19937;-89
2021/06/17 10:05:42;;;;;;;;;;;;;;;;;;4932673;28;19922;-89
2021/06/17 10:08:10;;;;;;;;;;;;;;;;;;4935446;28;19922;-89
2021/06/17 10:10:38;;;;;;;;;;;;;;;;;;4964589;28;19922;-89
2021/06/17 10:13:08;;;;;;;;;;;;;;;;;;4929326;29;19923;-89
2021/06/17 10:15:37;;;;;;;;;;;;;;;;;;4932383;28;19922;-89
2021/06/17 10:18:06;;;;;;;;;;;;;;;;;;4947131;28;19926;-89
2021/06/17 10:20:34;;;;;;;;;;;;;;;;;;4958939;28;19922;-89
2021/06/17 10:23:03;;;;;;;;;;;;;;;;;;4927675;28;19922;-90
2021/06/17 10:25:32;;;;;;;;;;;;;;;;;;4962539;28;19930;-89
2021/06/17 10:28:01;;;;;;;;;;;;;;;;;;4951977;28;19930;-90
2021/06/17 10:30:39;;;;;;;;;;;;;;;;;;4924326;28;19930;-87
2021/06/17 10:33:08;;;;;;;;;;;;;;;;;;4939361;28;19945;-87
2021/06/17 10:35:36;;;;;;;;;;;;;;;;;;4941135;29;19923;-89
2021/06/17 10:38:05;;;;;;;;;;;;;;;;;;4932521;28;19930;-89
2021/06/17 10:40:35;;;;;;;;;;;;;;;;;;4964872;28;19926;-88
2021/06/17 10:43:19;;;;;;;;;;;;;;;;;;4929382;28;19949;-88
2021/06/17 10:45:51;;;;;;;;;;;;;;;;;;4959777;28;19938;-89
2021/06/17 10:48:24;;;;;;;;;;;;;;;;;;4942561;29;19922;-88
2021/06/17 10:50:54;;;;;;;;;;;;;;;;;;4933372;29;19922;-89
2021/06/17 10:53:23;;;;;;;;;;;;;;;;;;4939612;29;19927;-89
2021/06/17 10:55:55;;;;;;;;;;;;;;;;;;4955927;28;19929;-88
2021/06/17 10:58:43;;;;;;;;;;;;;;;;;;4969135;28;19922;-90
2021/06/17 11:01:22;;;;;;;;;;;;;;;;;;4940118;29;19945;-89
2021/06/17 11:04:01;;;;;;;;;;;;;;;;;;4928326;28;19933;-90
2021/06/17 11:06:47;;;;;;;;;;;;;;;;;;4936935;29;19929;-89
2021/06/17 11:09:34;;;;;;;;;;;;;;;;;;4938634;28;19937;-90
2021/06/17 11:12:03;;;;;;;;;;;;;;;;;;4940838;28;19928;-89
2021/06/17 11:14:38;;;;;;;;;;;;;;;;;;4949961;28;19922;-88
2021/06/17 11:17:21;;;;;;;;;;;;;;;;;;4949859;28;20283;-89
2021/06/17 11:20:03;;;;;;;;;;;;;;;;;;4924940;29;19942;-88
2021/06/17 11:22:34;;;;;;;;;;;;;;;;;;4933209;28;19923;-88
2021/06/17 11:25:11;;;;;;;;;;;;;;;;;;4923277;28;19923;-89
2021/06/17 11:27:54;;;;;;;;;;;;;;;;;;4926520;28;19933;-89
2021/06/17 11:30:25;;;;;;;;;;;;;;;;;;4920371;28;19922;-89
2021/06/17 11:32:56;;;;;;;;;;;;;;;;;;4935909;28;19930;-89
2021/06/17 11:35:26;;;;;;;;;;;;;;;;;;4935769;29;19930;-88
2021/06/17 11:37:54;;;;;;;;;;;;;;;;;;4915218;28;19926;-88
2021/06/17 11:40:22;;;;;;;;;;;;;;;;;;4935190;28;19929;-86
2021/06/17 11:42:51;;;;;;;;;;;;;;;;;;4926983;28;20378;-86
2021/06/17 11:45:19;;;;;;;;;;;;;;;;;;4925187;28;19930;-85
2021/06/17 11:47:48;;;;;;;;;;;;;;;;;;4947380;28;20390;-86
2021/06/17 11:50:16;;;;;;;;;;;;;;;;;;4938107;28;19922;-86
2021/06/17 11:52:46;;;;;;;;;;;;;;;;;;4940522;28;19922;-87
2021/06/17 11:55:15;;;;;;;;;;;;;;;;;;4921529;28;19938;-87
2021/06/17 11:57:43;;;;;;;;;;;;;;;;;;4921556;28;20294;-87
2021/06/17 12:00:12;;;;;;;;;;;;;;;;;;4927636;28;19933;-87
2021/06/17 12:02:53;;;;;;;;;;;;;;;;;;4940637;28;20323;-87
2021/06/17 12:05:22;;;;;;;;;;;;;;;;;;4945434;28;19926;-87
2021/06/17 12:07:52;;;;;;;;;;;;;;;;;;4922095;28;19942;-88
2021/06/17 12:10:20;;;;;;;;;;;;;;;;;;4925785;28;19922;-87
2021/06/17 12:12:51;;;;;;;;;;;;;;;;;;4950108;28;19927;-88
2021/06/17 12:15:20;;;;;;;;;;;;;;;;;;4933049;28;19922;-88
2021/06/17 12:17:49;;;;;;;;;;;;;;;;;;4949257;29;20362;-88
2021/06/17 12:20:19;;;;;;;;;;;;;;;;;;4921421;28;19946;-88
2021/06/17 12:22:49;;;;;;;;;;;;;;;;;;4931383;28;20389;-88
2021/06/17 12:25:22;;;;;;;;;;;;;;;;;;4936549;29;20426;-88
2021/06/17 12:27:51;;;;;;;;;;;;;;;;;;4922062;28;19926;-88
2021/06/17 12:30:22;;;;;;;;;;;;;;;;;;4953880;28;19930;-88
2021/06/17 12:32:51;;;;;;;;;;;;;;;;;;4918314;29;20484;-88
2021/06/17 12:35:19;;;;;;;;;;;;;;;;;;4916445;28;19937;-88
2021/06/17 12:37:53;;;;;;;;;;;;;;;;;;4925740;28;19922;-88
2021/06/17 12:40:33;;;;;;;;;;;;;;;;;;4920077;28;20383;-88
2021/06/17 12:43:05;;;;;;;;;;;;;;;;;;4933853;28;19929;-88
2021/06/17 12:45:35;;;;;;;;;;;;;;;;;;4939599;28;19922;-87
2021/06/17 12:48:47;;;;;;;;;;;;;;;;;;4924045;28;19926;-91
2021/06/17 12:54:30;;;;;;;;;;;;;;;;;;4930115;29;19938;-89
2021/06/17 12:57:01;;;;;;;;;;;;;;;;;;4941820;28;20530;-89
2021/06/17 12:59:34;;;;;;;;;;;;;;;;;;4936306;29;19922;-90
2021/06/17 13:02:02;;;;;;;;;;;;;;;;;;4939273;29;19922;-89
2021/06/17 13:04:31;;;;;;;;;;;;;;;;;;4924040;28;19923;-90
2021/06/17 13:07:00;;;;;;;;;;;;;;;;;;4928722;29;20387;-91
2021/06/17 13:09:29;;;;;;;;;;;;;;;;;;4922755;28;19923;-91
2021/06/17 13:12:06;;;;;;;;;;;;;;;;;;4924549;29;19929;-90
2021/06/17 13:14:35;;;;;;;;;;;;;;;;;;4939055;28;19923;-90
2021/06/17 13:17:04;;;;;;;;;;;;;;;;;;4926172;28;19926;-90
2021/06/17 13:19:32;;;;;;;;;;;;;;;;;;4935809;28;20405;-91
2021/06/17 13:22:01;;;;;;;;;;;;;;;;;;4927061;29;20144;-89
2021/06/17 13:24:29;;;;;;;;;;;;;;;;;;4921758;28;19926;-91
2021/06/17 13:27:16;;;;;;;;;;;;;;;;;;4932235;28;19922;-90
2021/06/17 13:29:53;;;;;;;;;;;;;;;;;;4925538;29;19922;-90
2021/06/17 13:32:21;;;;;;;;;;;;;;;;;;4938438;28;19929;-90
2021/06/17 13:34:50;;;;;;;;;;;;;;;;;;4925707;28;19970;-90
2021/06/17 13:37:18;;;;;;;;;;;;;;;;;;4923901;28;20405;-90
2021/06/17 13:39:47;;;;;;;;;;;;;;;;;;4928452;28;19930;-90
2021/06/17 13:42:15;;;;;;;;;;;;;;;;;;4936696;28;20223;-90
2021/06/17 13:44:47;;;;;;;;;;;;;;;;;;4934160;28;19941;-91
2021/06/17 13:47:17;;;;;;;;;;;;;;;;;;4950131;28;20374;-91
2021/06/17 13:49:46;;;;;;;;;;;;;;;;;;4946806;28;20479;-91
2021/06/17 13:52:14;;;;;;;;;;;;;;;;;;4943415;28;19922;-91
2021/06/17 13:54:43;;;;;;;;;;;;;;;;;;4938826;28;19923;-90
2021/06/17 13:57:13;;;;;;;;;;;;;;;;;;4925308;28;20386;-89
2021/06/17 13:59:41;;;;;;;;;;;;;;;;;;4912195;29;20290;-89
2021/06/17 14:02:10;;;;;;;;;;;;;;;;;;4936764;28;19929;-90
2021/06/17 14:04:42;;;;;;;;;;;;;;;;;;4923730;29;19923;-89
2021/06/17 14:07:11;;;;;;;;;;;;;;;;;;4937631;28;19930;-90
2021/06/17 14:09:39;;;;;;;;;;;;;;;;;;4936057;28;19926;-89
2021/06/17 14:12:08;;;;;;;;;;;;;;;;;;4935056;28;19930;-91
2021/06/17 14:14:36;;;;;;;;;;;;;;;;;;4925152;28;20310;-89
2021/06/17 14:17:05;;;;;;;;;;;;;;;;;;4925211;28;19929;-90
2021/06/17 14:19:34;;;;;;;;;;;;;;;;;;4933191;28;20373;-90
2021/06/17 14:22:04;;;;;;;;;;;;;;;;;;4925876;28;19930;-89
2021/06/17 14:24:32;;;;;;;;;;;;;;;;;;4925336;29;19929;-90
2021/06/17 14:27:01;;;;;;;;;;;;;;;;;;4939291;28;20387;-90
2021/06/17 14:29:29;;;;;;;;;;;;;;;;;;4939730;29;19922;-92
2021/06/17 14:31:58;;;;;;;;;;;;;;;;;;4933412;29;19927;-91
2021/06/17 14:34:28;;;;;;;;;;;;;;;;;;4942030;29;20276;-90
2021/06/17 14:36:57;;;;;;;;;;;;;;;;;;4932842;29;19923;-90
2021/06/17 14:39:27;;;;;;;;;;;;;;;;;;4941496;28;20417;-89
2021/06/17 14:41:55;;;;;;;;;;;;;;;;;;4924215;29;19922;-90
2021/06/17 14:44:23;;;;;;;;;;;;;;;;;;4925439;28;19922;-89
2021/06/17 14:46:52;;;;;;;;;;;;;;;;;;4932776;28;19928;-89
2021/06/17 14:49:20;;;;;;;;;;;;;;;;;;4931824;28;19930;-90
2021/06/17 14:51:49;;;;;;;;;;;;;;;;;;4946101;28;20416;-89
2021/06/17 14:54:20;;;;;;;;;;;;;;;;;;4946326;28;20477;-89
2021/06/17 14:56:50;;;;;;;;;;;;;;;;;;4924276;28;19929;-89
2021/06/17 14:59:18;;;;;;;;;;;;;;;;;;4937940;29;19926;-90
2021/06/17 15:01:48;;;;;;;;;;;;;;;;;;4961016;28;19926;-89
2021/06/17 15:04:17;;;;;;;;;;;;;;;;;;4923995;28;19922;-90
2021/06/17 15:06:45;;;;;;;;;;;;;;;;;;4953915;28;19923;-90
2021/06/17 15:09:14;;;;;;;;;;;;;;;;;;4937741;28;20287;-90
2021/06/17 15:11:42;;;;;;;;;;;;;;;;;;4939031;29;19938;-90
2021/06/17 15:14:12;;;;;;;;;;;;;;;;;;4964953;28;19929;-90
2021/06/17 15:16:42;;;;;;;;;;;;;;;;;;4957984;28;20383;-91
2021/06/17 15:19:11;;;;;;;;;;;;;;;;;;4950820;28;19929;-90
2021/06/17 15:21:39;;;;;;;;;;;;;;;;;;4947280;28;19927;-91
2021/06/17 15:24:08;;;;;;;;;;;;;;;;;;4952651;28;19922;-90
2021/06/17 15:26:38;;;;;;;;;;;;;;;;;;4937601;29;19929;-89
2021/06/17 15:29:06;;;;;;;;;;;;;;;;;;4958211;28;19926;-90
2021/06/17 15:31:37;;;;;;;;;;;;;;;;;;4939408;28;19930;-90
2021/06/17 15:34:05;;;;;;;;;;;;;;;;;;4924348;28;19922;-89
2021/06/17 15:36:33;;;;;;;;;;;;;;;;;;4949673;28;19921;-90
2021/06/17 15:39:03;;;;;;;;;;;;;;;;;;4943924;28;19923;-90
2021/06/17 15:41:32;;;;;;;;;;;;;;;;;;4972851;28;19922;-91
2021/06/17 15:44:01;;;;;;;;;;;;;;;;;;4966167;28;19912;-94
2021/06/17 15:46:30;;;;;;;;;;;;;;;;;;4974100;28;19910;-96
2021/06/17 15:49:03;;;;;;;;;;;;;;;;;;4952172;29;19923;-90
2021/06/17 15:51:31;;;;;;;;;;;;;;;;;;4946788;28;19907;-91
2021/06/17 15:54:13;;;;;;;;;;;;;;;;;;4959818;28;19930;-89
2021/06/17 16:10:00;;;;;;;;;;;;;;;;;;4915036;29;19934;-81
2021/06/17 16:12:29;;;;;;;;;;;;;;;;;;4931519;29;19922;-83
2021/06/17 16:14:57;;;;;;;;;;;;;;;;;;4948587;29;19922;-81
2021/06/17 16:17:26;;;;;;;;;;;;;;;;;;4916359;29;19929;-81
2021/06/17 16:19:54;;;;;;;;;;;;;;;;;;4948527;29;19923;-81
2021/06/17 16:22:22;;;;;;;;;;;;;;;;;;4921033;29;19922;-81
2021/06/17 16:24:51;;;;;;;;;;;;;;;;;;4923097;29;19923;-82
2021/06/17 16:27:21;;;;;;;;;;;;;;;;;;4909465;29;20514;-82
2021/06/17 16:29:50;;;;;;;;;;;;;;;;;;4935290;29;19949;-82
2021/06/17 16:32:18;;;;;;;;;;;;;;;;;;4924425;29;19930;-82
2021/06/17 16:34:50;;;;;;;;;;;;;;;;;;4946703;29;19922;-82
2021/06/17 16:37:18;;;;;;;;;;;;;;;;;;4932668;29;20811;-82
2021/06/17 16:39:47;;;;;;;;;;;;;;;;;;4932695;29;20365;-82
2021/06/17 16:42:15;;;;;;;;;;;;;;;;;;4927274;29;19929;-81
2021/06/17 16:44:45;;;;;;;;;;;;;;;;;;4920864;29;19922;-82
2021/06/17 16:47:13;;;;;;;;;;;;;;;;;;4914277;29;19933;-82
2021/06/17 16:49:42;;;;;;;;;;;;;;;;;;4934480;29;19927;-83
2021/06/17 16:52:12;;;;;;;;;;;;;;;;;;4939862;29;19955;-83
2021/06/17 16:54:40;;;;;;;;;;;;;;;;;;4940686;29;19934;-84
2021/06/17 16:57:08;;;;;;;;;;;;;;;;;;4921369;29;19926;-83
2021/06/17 16:59:37;;;;;;;;;;;;;;;;;;4938070;29;19929;-83
2021/06/17 17:02:07;;;;;;;;;;;;;;;;;;4927416;29;20314;-83
2021/06/17 17:04:35;;;;;;;;;;;;;;;;;;4943030;29;19930;-83
2021/06/17 17:07:04;;;;;;;;;;;;;;;;;;4910447;29;20420;-82
2021/06/17 17:09:33;;;;;;;;;;;;;;;;;;4923902;29;19923;-83
2021/06/17 17:12:01;;;;;;;;;;;;;;;;;;4943770;29;20293;-82
2021/06/17 17:14:29;;;;;;;;;;;;;;;;;;4922040;29;19926;-82
2021/06/17 17:16:58;;;;;;;;;;;;;;;;;;4921225;29;19927;-82
2021/06/17 17:19:27;;;;;;;;;;;;;;;;;;4935695;29;19923;-83
2021/06/17 17:21:56;;;;;;;;;;;;;;;;;;4936254;29;19933;-82
2021/06/17 17:24:24;;;;;;;;;;;;;;;;;;4928035;29;19923;-82